• Join FlightAware (Why Join?)
  • Login
  • US Flag 
04:41PM EST


 

Airport Tracker/Info


-or-


 

Live Flight TrackerFlight Track Log ✈ KAP927 ✈ 19-Oct-2013 ✈ KALB - KOGS

Flight Track Log - Related Links

Times and Time Zones

All times are in EDT time to prevent confusion due to time zone crossing. See the KAP927 flight status page for this flight to view local times or setup timezone preferences in your user account.

Time Position Orientation Groundspeed Altitude Reporting Facility
EDT Latitude Longitude Course Direction KTS MPH feet Rate Location/Type
02:28PM 42.7150 -73.8303 215° Southwest 127 146 2,100  Level Boston Center
02:30PM 42.7186 -73.8786 276° West 139 160 2,900 780 Climbing Boston Center
02:30PM 42.7328 -73.9128 299° West 152 175 3,500 720 Climbing Boston Center
02:31PM 42.7781 -73.9450 332° Northwest 153 176 4,300 660 Climbing Boston Center
02:32PM 42.8111 -73.9742 327° Northwest 152 175 5,000 660 Climbing Boston Center
02:33PM 42.8522 -74.0033 333° Northwest 152 175 5,700 720 Climbing Boston Center
02:34PM 42.8875 -74.0269 334° Northwest 155 178 6,400 720 Climbing Boston Center
02:35PM 42.9286 -74.0650 326° Northwest 150 173 7,200 600 Climbing Boston Center
02:36PM 42.9658 -74.0914 333° Northwest 154 177 7,700 300 Climbing Boston Center
02:38PM 43.0047 -74.1236 329° Northwest 165 190 7,900 60 Climbing Boston Center
02:39PM 43.0481 -74.1589 329° Northwest 176 203 7,900  Level Boston Center
02:40PM 43.0997 -74.1975 331° Northwest 174 200 7,900  Level Boston Center
02:41PM 43.1389 -74.2242 334° Northwest 178 205 7,900 420 Level Boston Center
02:42PM 43.1781 -74.2539 331° Northwest 175 201 8,700 720 Climbing Boston Center
02:42PM 43.2047 -74.2744 331° Northwest 158 182 9,200 120 Climbing Boston Center
02:44PM 43.2454 -74.3022 334° Northwest  Level FlightAware Approximate
02:49PM 43.4842 -74.5006 330° Northwest 164 189 10,000  Level Boston Center
02:50PM 43.5256 -74.5306 332° Northwest 164 189 10,000  Level Boston Center
02:51PM 43.4896 -74.4922 330° Northwest  Level FlightAware Approximate
02:51PM 43.5686 -74.5664 329° Northwest 164 189 10,000  Level Boston Center
02:52PM 43.5243 -74.5197 330° Northwest  Level FlightAware Approximate
02:52PM 43.6117 -74.5994 331° Northwest 164 189 10,000  Level Boston Center
02:53PM 43.5591 -74.5473 330° Northwest  Level FlightAware Approximate
02:53PM 43.6528 -74.6297 332° Northwest 164 189 10,000  Level Boston Center
02:54PM 43.5938 -74.5749 330° Northwest  Level FlightAware Approximate
02:54PM 43.6917 -74.6625 329° Northwest 164 189 10,100  Level Boston Center
02:55PM 43.6286 -74.6025 330° Northwest  Level FlightAware Approximate
02:55PM 43.7350 -74.6958 331° Northwest 164 189 10,100  Level Boston Center
02:56PM 43.7758 -74.7289 330° Northwest 164 189 10,100  Level Boston Center
02:57PM 43.8169 -74.7622 330° Northwest 164 189 10,100  Level Boston Center
02:58PM 43.8600 -74.7956 331° Northwest 164 189 10,100 -60 Level Boston Center
02:59PM 43.8989 -74.8286 329° Northwest 164 189 10,000 -60 Descending Boston Center
03:00PM 43.9400 -74.8592 332° Northwest 164 189 10,000 -60 Level Boston Center
03:01PM 43.9808 -74.8925 330° Northwest 164 189 9,900 -420 Descending Boston Center
03:02PM 44.0261 -74.9292 330° Northwest 170 196 9,200 -720 Descending Boston Center
03:03PM 44.0731 -74.9658 331° Northwest 181 208 8,500 -600 Descending Boston Center
03:04PM 44.1222 -75.0083 328° Northwest 194 223 8,000 -540 Descending Boston Center
03:05PM 44.1736 -75.0425 335° Northwest 200 230 7,500 -600 Descending Boston Center
03:06PM 44.2206 -75.0822 329° Northwest 200 230 6,900 -660 Descending Boston Center
03:07PM 44.2697 -75.1219 330° Northwest 200 230 6,300 -600 Descending Boston Center